aviador You're here:

LKTB Decoded Metar

TURANY in CZECH REPUBLIC
Report Time2017-08-18 14:00:00
UTC Time2017-08-18 14:14:20
Flight Rules vfr VFR
Wind180° at 07 kt
W.Decomp.*RWY 10: 1.6 kt HW 6.8 kt RCW
RWY 09: 0.4 kt HW 7.0 kt RCW
W.Rank180° ranks 21
Current wind is above 180° avg. (5.5)
Visibility9999 m
Phenomena:N/A
Clouds:N/A
Expected CloudBase > 6,800 ft AGL from Temp-Dew spread
CeilingNone
Temp31°C (ISA +18)
Dew Point14°C (35% RH)
Heat Index30.3°C
AAT29.7°C
QNH1015 hPa
Density Alt2,966 ft
Elevation807 ft
Report Wrong Elevation
Raw Report
LKTB 181400Z 18007KT 130V220 CAVOK 31/14 Q1015 NOSIG=

Extra information for LKTB:More info

Metar Taf Metar & Taf Last 4 Metars F.Rules Stats Wind Profile Meteogram Temp Stats Airport Information Weather charts Add Link Nearby VenuesMetar ALERT Operation Metar Decoded Social comments